Time;durP1;ratioP1;P1;durP2;ratioP2;P2;SDS_P1;SDS_P2;PMS_P1;PMS_P2;Temp;Humidity;BMP_temperature;BMP_pressure;BME280_temperature;BME280_humidity;BME280_pressure;Samples;Min_cycle;Max_cycle;Signal;HPM_P1;HPM_P2
2022/01/29 00:00:13;;;;;;;23.65;14.02;;;;;;;9.57;54.22;102254.38;691067;28;1200;-92
2022/01/29 00:00:34;;;;;;;25.73;13.70;;;;;;;9.66;54.38;102267.97;683113;28;1425;-91
2022/01/29 00:00:59;;;;;;;25.30;13.47;;;;;;;9.70;54.33;102258.56;689735;28;1251;-89
2022/01/29 00:01:19;;;;;;;25.77;13.30;;;;;;;9.67;54.50;102256.72;688253;28;1275;-90
2022/01/29 00:01:40;;;;;;;23.48;13.50;;;;;;;9.76;54.45;102266.75;688377;28;1205;-91
2022/01/29 00:02:00;;;;;;;25.95;13.85;;;;;;;9.70;54.23;102267.31;689550;28;1242;-91
2022/01/29 00:02:22;;;;;;;26.97;14.50;;;;;;;9.71;54.36;102268.22;688119;28;1158;-91
2022/01/29 00:02:42;;;;;;;27.38;14.65;;;;;;;9.67;54.22;102263.63;685569;28;1164;-90
2022/01/29 00:03:03;;;;;;;25.47;14.27;;;;;;;9.63;54.19;102256.47;690246;28;1293;-90
2022/01/29 00:03:24;;;;;;;23.60;13.75;;;;;;;9.63;54.16;102261.69;688376;28;1197;-91
2022/01/29 00:03:44;;;;;;;23.38;13.80;;;;;;;9.57;54.29;102251.78;688245;28;1330;-91
2022/01/29 00:04:05;;;;;;;24.98;14.70;;;;;;;9.71;54.28;102266.50;685415;28;1153;-93
2022/01/29 00:04:25;;;;;;;25.60;14.27;;;;;;;9.70;54.34;102256.88;691039;28;1160;-92
2022/01/29 00:04:46;;;;;;;26.63;14.15;;;;;;;9.79;54.29;102269.53;688066;28;1197;-92
2022/01/29 00:05:09;;;;;;;25.42;13.55;;;;;;;9.72;54.29;102277.81;685015;28;1281;-91
2022/01/29 00:05:29;;;;;;;26.55;14.07;;;;;;;9.68;54.15;102266.34;690214;28;1832;-92
2022/01/29 00:05:50;;;;;;;25.93;14.80;;;;;;;9.64;54.58;102266.06;685662;28;1217;-91
2022/01/29 00:06:19;;;;;;;26.35;14.95;;;;;;;9.66;54.29;102264.44;688320;28;1154;-92
2022/01/29 00:06:40;;;;;;;25.33;14.60;;;;;;;9.67;54.56;102264.53;682964;29;1322;-92
2022/01/29 00:07:00;;;;;;;23.70;13.77;;;;;;;9.67;54.58;102274.97;688048;28;1079;-92
2022/01/29 00:07:21;;;;;;;21.40;13.27;;;;;;;9.59;54.42;102266.69;688054;28;1425;-92
2022/01/29 00:07:42;;;;;;;23.07;13.63;;;;;;;9.57;54.71;102262.22;688245;28;1395;-92
2022/01/29 00:08:03;;;;;;;24.35;14.27;;;;;;;9.56;54.90;102270.84;688517;28;1367;-92
2022/01/29 00:08:24;;;;;;;25.00;14.52;;;;;;;9.56;54.55;102266.53;687872;28;1207;-91
2022/01/29 00:08:45;;;;;;;24.63;14.10;;;;;;;9.56;54.81;102271.75;687197;28;1380;-92
2022/01/29 00:09:07;;;;;;;25.30;13.93;;;;;;;9.58;54.81;102267.50;690439;28;1235;-91
2022/01/29 00:09:27;;;;;;;25.45;14.13;;;;;;;9.58;54.79;102267.50;694115;28;1312;-93
2022/01/29 00:09:48;;;;;;;24.63;14.35;;;;;;;9.58;54.63;102259.69;690826;28;1220;-91
2022/01/29 00:10:12;;;;;;;24.33;14.20;;;;;;;9.55;54.57;102264.75;685602;28;1225;-92
2022/01/29 00:10:33;;;;;;;23.58;13.85;;;;;;;9.55;54.43;102254.31;687281;28;1347;-91
2022/01/29 00:11:00;;;;;;;26.13;14.20;;;;;;;9.56;54.57;102261.31;691642;28;1914;-92
2022/01/29 00:11:26;;;;;;;25.33;13.77;;;;;;;9.54;54.54;102257.75;690806;28;1281;-92
2022/01/29 00:11:47;;;;;;;27.92;14.15;;;;;;;9.58;54.81;102258.78;685386;28;1433;-91
2022/01/29 00:12:08;;;;;;;26.15;13.40;;;;;;;9.62;54.55;102265.06;687065;28;1555;-90
2022/01/29 00:12:29;;;;;;;25.73;13.60;;;;;;;9.60;54.78;102252.84;685423;28;1246;-91
2022/01/29 00:12:50;;;;;;;23.23;13.50;;;;;;;9.59;54.37;102251.06;688690;28;1424;-91
2022/01/29 00:13:11;;;;;;;24.63;13.50;;;;;;;9.59;54.60;102269.31;685470;28;1253;-92
2022/01/29 00:13:31;;;;;;;22.65;12.85;;;;;;;9.63;54.51;102259.94;688117;28;1218;-92
2022/01/29 00:13:52;;;;;;;22.60;13.15;;;;;;;9.62;54.62;102252.03;686104;28;1370;-92
2022/01/29 00:14:12;;;;;;;22.30;13.40;;;;;;;9.64;54.56;102266.06;688136;28;1160;-92
2022/01/29 00:14:33;;;;;;;24.58;13.80;;;;;;;9.65;54.73;102260.03;683126;28;1295;-92
2022/01/29 00:14:54;;;;;;;26.50;13.98;;;;;;;9.57;54.70;102263.13;686279;28;1159;-91
2022/01/29 00:15:14;;;;;;;27.00;13.87;;;;;;;9.66;54.66;102256.63;689339;28;1514;-92
2022/01/29 00:15:35;;;;;;;25.52;13.68;;;;;;;9.70;54.26;102258.56;689311;28;1138;-91
2022/01/29 00:15:56;;;;;;;23.55;13.13;;;;;;;9.68;54.21;102255.00;686119;28;1328;-92
2022/01/29 00:16:16;;;;;;;24.80;13.35;;;;;;;9.67;54.33;102263.63;692485;28;1236;-91
2022/01/29 00:16:37;;;;;;;24.20;13.30;;;;;;;9.59;54.56;102251.06;689111;28;1438;-91
2022/01/29 00:16:57;;;;;;;26.00;13.65;;;;;;;9.63;54.53;102257.34;689215;28;1207;-91
2022/01/29 00:17:18;;;;;;;24.40;13.87;;;;;;;9.66;54.34;102264.44;685428;28;1255;-91
2022/01/29 00:17:39;;;;;;;28.60;13.57;;;;;;;9.60;54.46;102255.47;680428;29;1198;-90
2022/01/29 00:17:59;;;;;;;30.23;13.45;;;;;;;9.54;54.47;102255.13;686104;28;1436;-92
2022/01/29 00:18:20;;;;;;;31.27;13.07;;;;;;;9.60;54.74;102263.28;690929;28;1202;-92
2022/01/29 00:18:40;;;;;;;27.30;13.20;;;;;;;9.67;54.51;102264.53;690819;28;1563;-92
2022/01/29 00:19:01;;;;;;;23.40;13.02;;;;;;;9.72;54.22;102252.63;687404;28;1336;-92
2022/01/29 00:19:30;;;;;;;22.90;12.83;;;;;;;9.75;54.14;102246.69;688109;28;1272;-92
2022/01/29 00:19:51;;;;;;;25.05;12.50;;;;;;;9.76;54.12;102247.63;689468;28;1284;-92
2022/01/29 00:20:12;;;;;;;24.67;12.60;;;;;;;9.87;53.95;102256.91;687615;28;1232;-91
2022/01/29 00:20:33;;;;;;;24.13;12.60;;;;;;;9.86;53.91;102261.25;690924;28;1430;-92
2022/01/29 00:20:53;;;;;;;22.38;12.85;;;;;;;9.77;54.13;102238.97;689037;28;1247;-92
2022/01/29 00:21:29;;;;;;;23.00;12.83;;;;;;;9.78;54.14;102252.09;691089;28;1159;-92
2022/01/29 00:21:50;;;;;;;24.65;12.93;;;;;;;9.79;53.84;102248.69;692164;28;1596;-90
2022/01/29 00:22:10;;;;;;;24.42;12.73;;;;;;;9.86;53.84;102242.06;696168;28;1264;-91
2022/01/29 00:22:30;;;;;;;24.40;12.93;;;;;;;9.73;54.05;102232.69;693741;28;1900;-90
2022/01/29 00:22:51;;;;;;;23.15;12.30;;;;;;;9.77;54.09;102260.72;690847;28;1186;-91
2022/01/29 00:23:12;;;;;;;23.20;12.77;;;;;;;9.68;54.47;102247.16;690963;28;1019;-89
2022/01/29 00:23:32;;;;;;;23.10;12.63;;;;;;;9.63;54.54;102246.91;688037;28;1415;-88
2022/01/29 00:23:53;;;;;;;24.02;12.70;;;;;;;9.69;54.30;102246.34;693517;28;1315;-91
2022/01/29 00:24:13;;;;;;;23.23;12.20;;;;;;;9.70;54.36;102258.56;690902;28;1240;-90
2022/01/29 00:24:34;;;;;;;27.27;12.50;;;;;;;9.55;54.50;102237.78;685568;28;1231;-90
2022/01/29 00:24:57;;;;;;;25.65;11.85;;;;;;;9.65;54.38;102247.00;692011;28;1065;-91
2022/01/29 00:25:18;;;;;;;23.80;11.63;;;;;;;9.63;54.34;102251.25;690837;28;1412;-90
2022/01/29 00:25:38;;;;;;;18.17;11.10;;;;;;;9.62;54.50;102246.81;685566;28;1160;-90
2022/01/29 00:25:59;;;;;;;18.03;11.90;;;;;;;9.59;54.55;102247.56;687026;28;1169;-90
2022/01/29 00:26:22;;;;;;;18.80;11.65;;;;;;;9.64;54.30;102253.03;688032;28;1367;-89
2022/01/29 00:26:43;;;;;;;23.02;12.20;;;;;;;9.60;54.33;102247.63;685586;28;1240;-90
2022/01/29 00:27:08;;;;;;;25.70;12.27;;;;;;;9.72;54.47;102256.97;688073;28;1197;-91
2022/01/29 00:27:33;;;;;;;23.23;12.32;;;;;;;9.71;54.21;102255.19;688109;28;1314;-90
2022/01/29 00:27:56;;;;;;;20.70;12.57;;;;;;;9.59;54.30;102243.25;686409;28;1278;-91
2022/01/29 00:28:17;;;;;;;20.17;11.85;;;;;;;9.64;54.17;102242.63;690137;28;1441;-93
2022/01/29 00:28:38;;;;;;;19.35;11.73;;;;;;;9.57;54.52;102236.16;690389;28;1147;-92
2022/01/29 00:29:04;;;;;;;18.80;11.25;;;;;;;9.57;54.15;102234.44;687123;28;1244;-92
2022/01/29 00:29:25;;;;;;;20.25;11.70;;;;;;;9.62;54.32;102252.03;688045;28;1234;-91
2022/01/29 00:29:46;;;;;;;22.65;12.52;;;;;;;9.63;54.41;102243.44;693189;28;1316;-91
2022/01/29 00:30:10;;;;;;;23.10;12.85;;;;;;;9.63;54.56;102246.91;691008;28;1185;-90
2022/01/29 00:30:37;;;;;;;19.98;12.13;;;;;;;9.64;54.69;102271.28;690808;28;1119;-89
2022/01/29 00:30:57;;;;;;;19.13;11.57;;;;;;;9.52;54.55;102242.81;688007;28;1910;-89
2022/01/29 00:31:18;;;;;;;20.23;11.60;;;;;;;9.53;54.66;102235.06;685259;28;1193;-91
2022/01/29 00:31:39;;;;;;;18.75;11.75;;;;;;;9.62;54.31;102257.25;682999;29;1205;-92
2022/01/29 00:31:59;;;;;;;21.08;12.10;;;;;;;9.58;54.52;102244.06;687010;28;1187;-90
2022/01/29 00:32:20;;;;;;;21.03;12.40;;;;;;;9.56;54.55;102245.69;685312;28;1163;-90
2022/01/29 00:32:40;;;;;;;23.87;12.63;;;;;;;9.56;54.22;102237.88;685866;28;973;-91
2022/01/29 00:33:01;;;;;;;21.08;11.98;;;;;;;9.64;54.36;102242.63;686280;28;1229;-91
2022/01/29 00:33:21;;;;;;;21.33;11.80;;;;;;;9.67;54.17;102234.97;687981;28;1548;-92
2022/01/29 00:33:42;;;;;;;19.75;11.30;;;;;;;9.68;54.07;102253.28;685543;28;1181;-91
2022/01/29 00:34:02;;;;;;;21.38;11.55;;;;;;;9.63;54.35;102251.25;693571;28;1214;-91
2022/01/29 00:34:23;;;;;;;22.47;12.03;;;;;;;9.59;54.43;102232.81;685340;28;1221;-91
2022/01/29 00:34:44;;;;;;;22.27;12.38;;;;;;;9.58;54.33;102228.41;687115;28;1671;-89
2022/01/29 00:35:05;;;;;;;22.13;12.48;;;;;;;9.67;54.15;102242.78;687897;28;1133;-90
2022/01/29 00:35:26;;;;;;;20.80;12.25;;;;;;;9.63;54.16;102243.44;688249;28;1208;-90
2022/01/29 00:35:46;;;;;;;22.25;12.40;;;;;;;9.64;54.07;102243.50;688027;28;1367;-91
2022/01/29 00:36:07;;;;;;;21.43;11.80;;;;;;;9.72;54.22;102242.22;690743;28;1309;-91
2022/01/29 00:36:27;;;;;;;22.17;12.00;;;;;;;9.62;54.21;102239.91;688082;28;1344;-91
2022/01/29 00:36:48;;;;;;;20.80;11.70;;;;;;;9.68;54.44;102247.16;685305;28;1160;-91
2022/01/29 00:37:09;;;;;;;23.08;12.45;;;;;;;9.59;54.28;102225.00;688107;28;1262;-91
2022/01/29 00:37:29;;;;;;;21.42;12.10;;;;;;;9.67;54.35;102248.00;692526;28;1700;-92
2022/01/29 00:37:50;;;;;;;19.95;12.13;;;;;;;9.69;53.91;102246.34;690272;28;1141;-90
2022/01/29 00:38:10;;;;;;;18.30;11.70;;;;;;;9.63;54.10;102240.81;688040;28;1225;-88
2022/01/29 00:38:32;;;;;;;23.65;11.85;;;;;;;9.68;54.10;102236.75;690530;28;1439;-90
2022/01/29 00:38:52;;;;;;;24.38;12.13;;;;;;;9.60;54.35;102247.63;693881;28;1334;-89
2022/01/29 00:39:13;;;;;;;25.43;12.33;;;;;;;9.63;54.44;102235.63;693408;28;1190;-91
2022/01/29 00:39:34;;;;;;;22.70;12.73;;;;;;;9.48;54.48;102236.53;694766;28;1176;-89
2022/01/29 00:39:55;;;;;;;23.27;12.70;;;;;;;9.60;54.42;102237.22;687847;28;1290;-92
2022/01/29 00:40:45;;;;;;;23.63;13.02;;;;;;;9.72;54.49;102241.31;690228;28;1226;-89
2022/01/29 00:41:06;;;;;;;24.67;12.93;;;;;;;9.68;54.29;102223.72;683227;28;1317;-91
2022/01/29 00:41:26;;;;;;;23.88;12.77;;;;;;;9.72;54.26;102221.34;685563;28;1232;-91
2022/01/29 00:41:47;;;;;;;23.23;12.53;;;;;;;9.72;54.14;102236.13;687959;28;1334;-90
2022/01/29 00:42:07;;;;;;;23.87;12.90;;;;;;;9.71;54.05;102234.31;690301;28;1329;-91
2022/01/29 00:42:28;;;;;;;22.92;13.05;;;;;;;9.68;53.96;102223.72;687744;28;1228;-91
2022/01/29 00:42:48;;;;;;;25.08;13.23;;;;;;;9.70;54.38;102237.72;681430;29;1364;-91
2022/01/29 00:43:09;;;;;;;22.80;12.60;;;;;;;9.62;54.23;102224.28;690783;28;1447;-92
2022/01/29 00:43:29;;;;;;;21.13;12.23;;;;;;;9.58;54.53;102225.81;690710;28;1274;-90
2022/01/29 00:43:50;;;;;;;19.77;12.30;;;;;;;9.65;54.45;102227.03;688076;28;1202;-89
2022/01/29 00:44:11;;;;;;;20.98;12.68;;;;;;;9.64;54.44;102224.38;684729;28;1119;-90
2022/01/29 00:44:31;;;;;;;22.57;12.53;;;;;;;9.64;54.40;102214.81;685304;28;1253;-91
2022/01/29 00:44:52;;;;;;;21.93;12.93;;;;;;;9.67;54.42;102222.84;685364;28;1350;-91
2022/01/29 00:45:12;;;;;;;23.15;13.10;;;;;;;9.66;54.33;102215.81;690369;28;1191;-92
2022/01/29 00:45:33;;;;;;;24.23;13.23;;;;;;;9.68;54.17;102224.63;690649;28;1256;-91
2022/01/29 00:45:54;;;;;;;25.67;12.80;;;;;;;9.62;54.38;102220.75;687710;28;1208;-91
2022/01/29 00:46:14;;;;;;;27.65;13.13;;;;;;;9.61;54.39;102214.66;687336;28;1243;-91
2022/01/29 00:46:40;;;;;;;24.48;12.45;;;;;;;9.70;54.37;102222.06;682448;29;1186;-91
2022/01/29 00:47:01;;;;;;;22.45;12.90;;;;;;;9.72;54.36;102221.34;687037;28;1425;-91
2022/01/29 00:47:21;;;;;;;22.13;13.10;;;;;;;9.71;54.33;102219.56;688137;28;1175;-92
2022/01/29 00:47:42;;;;;;;23.55;13.63;;;;;;;9.64;54.39;102211.34;685365;28;1238;-91
2022/01/29 00:48:03;;;;;;;22.05;13.10;;;;;;;9.62;54.42;102208.63;689144;28;1227;-90
2022/01/29 00:48:23;;;;;;;22.48;12.98;;;;;;;9.60;54.48;102205.94;690382;28;1165;-91
2022/01/29 00:48:44;;;;;;;24.13;13.40;;;;;;;9.51;54.46;102207.16;685538;28;1204;-90
2022/01/29 00:49:04;;;;;;;24.88;13.65;;;;;;;9.58;54.46;102204.06;688120;28;1191;-91
2022/01/29 00:49:25;;;;;;;25.40;13.80;;;;;;;9.55;54.58;102204.81;693156;28;1297;-92
2022/01/29 00:49:46;;;;;;;25.30;13.70;;;;;;;9.63;54.63;102209.53;682671;29;1186;-91
2022/01/29 00:50:08;;;;;;;25.90;13.82;;;;;;;9.62;54.60;102202.50;687937;28;1285;-92
2022/01/29 00:50:29;;;;;;;25.85;14.35;;;;;;;9.60;54.31;102211.16;690446;28;1343;-90
2022/01/29 00:50:50;;;;;;;25.63;14.63;;;;;;;9.67;54.69;102201.06;690760;28;1384;-91
2022/01/29 00:51:10;;;;;;;24.10;14.70;;;;;;;9.69;54.40;102209.84;685347;28;1919;-90
2022/01/29 00:51:30;;;;;;;23.03;14.03;;;;;;;9.68;54.37;102218.50;688253;28;1153;-90
2022/01/29 00:51:51;;;;;;;24.92;13.88;;;;;;;9.58;54.49;102196.22;685944;28;1302;-92
2022/01/29 00:52:12;;;;;;;24.70;13.15;;;;;;;9.54;54.33;102183.84;693393;28;1265;-92
2022/01/29 00:52:33;;;;;;;24.35;12.75;;;;;;;9.59;54.58;102193.72;686545;28;1266;-89
2022/01/29 00:52:53;;;;;;;22.03;12.60;;;;;;;9.55;54.59;102197.00;686072;28;1326;-90
2022/01/29 00:53:14;;;;;;;23.30;13.57;;;;;;;9.58;54.69;102206.66;690644;28;1210;-90
2022/01/29 00:53:35;;;;;;;22.85;13.45;;;;;;;9.60;54.74;102205.94;690845;28;1186;-89
2022/01/29 00:53:55;;;;;;;23.67;13.23;;;;;;;9.58;54.74;102185.81;685908;28;1343;-89
2022/01/29 00:54:16;;;;;;;23.63;12.97;;;;;;;9.55;54.37;102186.56;688034;28;1278;-91
2022/01/29 00:54:37;;;;;;;23.25;13.07;;;;;;;9.62;54.73;102202.50;683161;28;1320;-91
2022/01/29 00:54:57;;;;;;;23.15;13.10;;;;;;;9.59;54.64;102185.91;685366;28;1372;-89
2022/01/29 00:55:18;;;;;;;23.20;12.90;;;;;;;9.54;54.69;102179.56;682647;28;1281;-90
2022/01/29 00:55:41;;;;;;;25.92;13.23;;;;;;;9.54;54.58;102189.97;688097;28;1271;-90
2022/01/29 00:56:06;;;;;;;26.75;13.13;;;;;;;9.60;54.38;102166.84;686992;28;1236;-92
2022/01/29 00:56:26;;;;;;;26.67;12.77;;;;;;;9.60;54.23;102185.09;688081;28;1442;-90
2022/01/29 00:56:47;;;;;;;26.90;13.15;;;;;;;9.67;54.22;102182.81;690818;28;1270;-92
2022/01/29 00:57:08;;;;;;;28.95;13.90;;;;;;;9.65;54.65;102182.72;690671;28;1219;-91
2022/01/29 00:57:30;;;;;;;26.63;14.10;;;;;;;9.62;54.63;102171.22;690673;28;1077;-93
2022/01/29 00:57:51;;;;;;;24.75;13.57;;;;;;;9.60;54.35;102174.66;688308;28;1322;-92
2022/01/29 00:58:11;;;;;;;23.67;13.63;;;;;;;9.54;54.70;102176.94;680400;28;1594;-91
2022/01/29 00:58:33;;;;;;;23.98;13.48;;;;;;;9.59;54.42;102175.47;687718;28;1251;-91
2022/01/29 00:58:53;;;;;;;23.15;13.20;;;;;;;9.53;55.01;102166.44;683408;28;1373;-91
2022/01/29 00:59:14;;;;;;;23.20;13.17;;;;;;;9.47;55.15;102156.56;688004;28;1240;-90
2022/01/29 00:59:34;;;;;;;24.45;13.85;;;;;;;9.48;54.97;102178.31;687342;28;1767;-89
2022/01/29 00:59:55;;;;;;;26.42;15.05;;;;;;;9.49;54.93;102173.19;691490;28;1193;-92
2022/01/29 01:00:16;;;;;;;26.23;14.93;;;;;;;9.53;54.88;102182.06;693213;28;1211;-92
2022/01/29 01:00:36;;;;;;;26.65;14.75;;;;;;;9.55;54.73;102160.50;685002;28;1259;-90
2022/01/29 01:00:57;;;;;;;24.40;13.80;;;;;;;9.52;54.90;102165.53;682229;28;1285;-91
2022/01/29 01:01:18;;;;;;;23.63;13.47;;;;;;;9.56;54.88;102157.06;690674;28;1134;-91
2022/01/29 01:01:38;;;;;;;27.40;13.13;;;;;;;9.55;54.52;102155.28;693549;28;1244;-91
2022/01/29 01:01:59;;;;;;;27.15;13.45;;;;;;;9.53;54.75;102164.69;686572;28;1166;-92
2022/01/29 01:02:19;;;;;;;29.63;14.13;;;;;;;9.58;54.77;102171.06;685332;28;1246;-92
2022/01/29 01:02:41;;;;;;;27.77;14.35;;;;;;;9.61;54.89;102159.94;687966;28;1212;-91
2022/01/29 01:03:01;;;;;;;29.67;14.65;;;;;;;9.50;54.63;102151.53;691673;28;1201;-90
2022/01/29 01:03:22;;;;;;;26.70;14.63;;;;;;;9.58;54.68;102160.66;693351;28;1207;-90
2022/01/29 01:03:42;;;;;;;28.95;14.75;;;;;;;9.52;54.67;102152.50;690663;28;1313;-91
2022/01/29 01:04:03;;;;;;;29.13;14.57;;;;;;;9.52;54.72;102146.41;688022;28;1160;-90
2022/01/29 01:04:24;;;;;;;28.27;14.70;;;;;;;9.46;55.43;102147.84;685323;28;1507;-92
2022/01/29 01:04:44;;;;;;;26.80;14.40;;;;;;;9.53;54.89;102153.41;688045;28;1480;-92
2022/01/29 01:05:06;;;;;;;28.43;14.40;;;;;;;9.48;55.13;102144.41;693297;28;1202;-91
2022/01/29 01:05:26;;;;;;;29.38;14.10;;;;;;;9.52;55.01;102159.44;692549;28;1241;-90
2022/01/29 01:05:47;;;;;;;28.40;14.30;;;;;;;9.58;55.01;102168.47;687947;28;1370;-91
2022/01/29 01:06:07;;;;;;;25.43;14.60;;;;;;;9.53;54.98;102146.47;693343;28;1262;-90
2022/01/29 01:06:28;;;;;;;26.60;14.63;;;;;;;9.59;54.77;102148.53;687959;28;1201;-92
2022/01/29 01:06:48;;;;;;;25.90;14.67;;;;;;;9.50;54.86;102141.09;687670;28;1460;-92
2022/01/29 01:07:10;;;;;;;25.85;14.73;;;;;;;9.53;54.96;102156.00;689486;28;1284;-89
2022/01/29 01:07:30;;;;;;;25.85;15.02;;;;;;;9.56;54.87;102149.25;693257;28;1327;-91
2022/01/29 01:08:16;;;;;;;25.63;14.32;;;;;;;9.68;54.82;102156.84;691043;28;1257;-92
2022/01/29 01:08:36;;;;;;;27.23;14.75;;;;;;;9.66;54.77;102158.47;679878;28;1421;-92
2022/01/29 01:08:57;;;;;;;29.57;15.23;;;;;;;9.63;54.70;102152.19;686483;28;1293;-91
2022/01/29 01:09:18;;;;;;;30.02;15.27;;;;;;;9.63;54.80;102137.44;690142;28;1419;-91
2022/01/29 01:09:38;;;;;;;28.60;14.43;;;;;;;9.60;54.38;102148.59;687480;28;1303;-91
2022/01/29 01:09:59;;;;;;;29.27;14.83;;;;;;;9.58;54.90;102150.22;686578;28;1313;-89
2022/01/29 01:10:26;;;;;;;29.50;15.10;;;;;;;9.54;55.01;102158.72;688115;28;1294;-91
2022/01/29 01:10:46;;;;;;;29.88;15.20;;;;;;;9.57;54.85;102143.22;693364;28;1296;-90
2022/01/29 01:11:07;;;;;;;28.52;14.90;;;;;;;9.65;54.99;102151.44;690624;28;1906;-91
2022/01/29 01:11:27;;;;;;;28.80;15.27;;;;;;;9.58;54.60;102145.00;685446;28;1290;-90
2022/01/29 01:11:48;;;;;;;30.13;15.43;;;;;;;9.59;55.13;102145.91;693406;28;1314;-90
2022/01/29 01:12:08;;;;;;;29.40;15.47;;;;;;;9.55;54.94;102129.22;682878;29;1130;-90
2022/01/29 01:12:29;;;;;;;28.70;14.90;;;;;;;9.57;54.66;102143.22;688033;28;1165;-91
2022/01/29 01:12:50;;;;;;;28.50;14.77;;;;;;;9.62;54.49;102145.16;688294;28;1398;-92
2022/01/29 01:13:10;;;;;;;30.73;15.50;;;;;;;9.60;54.64;102143.38;690832;28;1121;-91
2022/01/29 01:13:32;;;;;;;29.52;15.57;;;;;;;9.68;54.81;102150.72;690910;28;1243;-91
2022/01/29 01:13:52;;;;;;;28.98;15.60;;;;;;;9.65;54.51;102153.16;691115;28;1349;-91
2022/01/29 01:14:13;;;;;;;26.63;14.55;;;;;;;9.56;54.49;102130.09;687886;28;1191;-90
2022/01/29 01:14:34;;;;;;;27.80;14.90;;;;;;;9.54;54.73;102137.84;686833;28;1455;-91
2022/01/29 01:14:55;;;;;;;27.88;15.00;;;;;;;9.59;54.73;102138.97;688045;28;1262;-91
2022/01/29 01:15:15;;;;;;;27.13;15.30;;;;;;;9.62;54.90;102145.16;685194;28;1228;-90
2022/01/29 01:15:36;;;;;;;27.77;15.10;;;;;;;9.66;54.62;102152.34;682799;29;1237;-91
2022/01/29 01:15:56;;;;;;;28.00;15.02;;;;;;;9.55;54.59;102134.44;687511;28;1209;-90
2022/01/29 01:16:17;;;;;;;30.45;15.35;;;;;;;9.52;54.90;102138.59;687874;28;1122;-92
2022/01/29 01:16:37;;;;;;;30.83;15.40;;;;;;;9.51;55.17;102142.88;685451;28;1235;-92
2022/01/29 01:17:03;;;;;;;31.80;15.48;;;;;;;9.55;54.97;102138.72;690774;28;1180;-91
2022/01/29 01:17:24;;;;;;;27.85;15.57;;;;;;;9.60;54.71;102138.16;687493;28;1327;-92
2022/01/29 01:17:44;;;;;;;27.88;15.38;;;;;;;9.62;54.87;102150.38;687980;28;1177;-92
2022/01/29 01:18:05;;;;;;;27.13;15.43;;;;;;;9.59;55.00;102135.50;687475;28;1243;-90
2022/01/29 01:18:26;;;;;;;28.70;15.55;;;;;;;9.66;54.58;102142.84;684969;28;1413;-92
2022/01/29 01:18:46;;;;;;;29.73;15.60;;;;;;;9.62;54.90;102132.13;688133;28;1285;-91
2022/01/29 01:19:07;;;;;;;28.07;15.60;;;;;;;9.57;54.64;102124.97;691456;28;1153;-90
2022/01/29 01:19:30;;;;;;;26.50;14.73;;;;;;;9.66;54.84;102140.22;687257;28;1232;-91
2022/01/29 01:19:51;;;;;;;26.25;15.10;;;;;;;9.58;55.03;102137.19;687358;28;1253;-90
2022/01/29 01:20:12;;;;;;;26.45;15.05;;;;;;;9.55;54.63;102125.72;685342;28;1309;-89
2022/01/29 01:20:33;;;;;;;28.23;15.07;;;;;;;9.59;55.05;102136.38;685424;28;996;-90
2022/01/29 01:20:53;;;;;;;31.20;15.60;;;;;;;9.67;54.80;102146.31;690643;28;1297;-91
2022/01/29 01:21:15;;;;;;;32.45;16.48;;;;;;;9.65;54.91;102145.34;688029;28;1408;-90
2022/01/29 01:21:35;;;;;;;32.35;16.83;;;;;;;9.66;54.85;102144.53;687967;28;1577;-93
2022/01/29 01:21:56;;;;;;;31.67;16.05;;;;;;;9.65;54.98;102151.44;685276;28;1215;-92
2022/01/29 01:22:17;;;;;;;29.73;15.13;;;;;;;9.65;54.84;102141.00;682508;28;1201;-91
2022/01/29 01:22:38;;;;;;;29.58;15.10;;;;;;;9.72;54.77;102147.47;684238;28;1180;-92
2022/01/29 01:22:58;;;;;;;29.77;15.83;;;;;;;9.68;54.92;102145.50;686671;28;1239;-91
2022/01/29 01:23:19;;;;;;;30.20;16.30;;;;;;;9.63;54.88;102136.56;686328;28;1235;-91
2022/01/29 01:23:40;;;;;;;29.50;16.00;;;;;;;9.64;54.93;102139.22;690644;28;1223;-89
2022/01/29 01:24:00;;;;;;;26.58;15.63;;;;;;;9.55;55.01;102129.22;685166;28;1271;-90
2022/01/29 01:24:22;;;;;;;28.50;15.57;;;;;;;9.53;55.09;102133.44;687065;28;1466;-91
2022/01/29 01:24:43;;;;;;;27.40;15.32;;;;;;;9.59;55.15;102136.38;688113;28;1346;-92
2022/01/29 01:25:04;;;;;;;27.60;15.63;;;;;;;9.64;55.13;102160.09;692919;28;1185;-90
2022/01/29 01:25:25;;;;;;;25.77;15.18;;;;;;;9.63;55.01;102142.66;693589;28;964;-91
2022/01/29 01:25:45;;;;;;;25.92;15.38;;;;;;;9.59;55.17;102125.94;680261;29;1201;-92
2022/01/29 01:26:19;;;;;;;25.90;14.93;;;;;;;9.56;54.87;102133.63;689895;28;1201;-90
2022/01/29 01:26:42;;;;;;;30.15;16.20;;;;;;;9.46;55.16;102140.03;687527;28;1293;-91
2022/01/29 01:27:03;;;;;;;31.27;16.48;;;;;;;9.45;55.31;102137.31;692422;28;1278;-89
2022/01/29 01:27:23;;;;;;;29.90;16.15;;;;;;;9.52;55.12;102154.22;690623;28;1146;-89
2022/01/29 01:27:44;;;;;;;29.20;15.03;;;;;;;9.53;55.20;102145.59;680738;29;1479;-88
2022/01/29 01:28:05;;;;;;;29.13;14.85;;;;;;;9.51;55.35;102124.63;684785;28;1189;-91
2022/01/29 01:28:25;;;;;;;27.90;14.43;;;;;;;9.55;55.08;102129.22;687982;28;1243;-90
2022/01/29 01:28:46;;;;;;;26.70;15.30;;;;;;;9.53;55.40;102129.94;687965;28;1258;-91
2022/01/29 01:29:06;;;;;;;27.25;16.35;;;;;;;9.44;55.14;102138.16;687848;28;1165;-90
2022/01/29 01:29:27;;;;;;;30.13;17.45;;;;;;;9.48;54.94;102131.41;693262;28;1027;-89
2022/01/29 01:29:48;;;;;;;30.40;17.00;;;;;;;9.46;55.28;102120.88;687617;28;1266;-90
2022/01/29 01:30:25;;;;;;;31.25;16.67;;;;;;;9.49;55.19;102138.41;687902;28;1328;-91
2022/01/29 01:30:46;;;;;;;29.20;16.65;;;;;;;9.49;55.21;102122.75;690763;28;1325;-90
2022/01/29 01:31:06;;;;;;;27.47;16.07;;;;;;;9.49;55.54;102144.53;693049;28;1922;-90
2022/01/29 01:31:27;;;;;;;26.75;15.35;;;;;;;9.50;55.12;102138.50;683534;28;1226;-91
2022/01/29 01:31:47;;;;;;;29.73;15.48;;;;;;;9.54;55.30;102148.28;685280;28;1286;-90
2022/01/29 01:32:11;;;;;;;29.07;15.67;;;;;;;9.46;55.28;102129.59;690319;28;1438;-91
2022/01/29 01:32:32;;;;;;;30.95;15.60;;;;;;;9.50;55.44;102128.06;687951;28;1302;-91
2022/01/29 01:32:53;;;;;;;29.10;15.80;;;;;;;9.44;55.18;102122.50;687342;28;1479;-90
2022/01/29 01:33:13;;;;;;;27.15;15.45;;;;;;;9.54;55.12;102127.44;682550;28;1311;-89
2022/01/29 01:33:34;;;;;;;27.77;15.60;;;;;;;9.44;55.48;102125.13;685333;28;1157;-90
2022/01/29 01:33:54;;;;;;;26.40;15.77;;;;;;;9.51;54.98;102122.03;687114;28;1642;-90
2022/01/29 01:34:18;;;;;;;26.40;16.10;;;;;;;9.58;55.00;102134.59;688007;28;1057;-92
2022/01/29 01:34:45;;;;;;;28.85;16.90;;;;;;;9.51;55.24;102137.66;687906;28;1400;-90
2022/01/29 01:35:29;;;;;;;32.38;17.08;;;;;;;9.59;55.11;102127.69;690244;28;1405;-91
2022/01/29 01:35:54;;;;;;;29.45;15.90;;;;;;;9.64;55.11;102134.00;687774;28;1390;-91
2022/01/29 01:36:18;;;;;;;28.52;16.02;;;;;;;9.52;55.73;102118.59;685219;28;1223;-92
2022/01/29 01:36:51;;;;;;;29.25;15.50;;;;;;;9.56;54.95;102124.88;685281;28;1210;-92
2022/01/29 01:37:20;;;;;;;28.40;14.80;;;;;;;9.55;55.28;102128.31;680509;28;1401;-91
2022/01/29 01:37:48;;;;;;;26.02;14.80;;;;;;;9.56;55.03;102125.78;682614;28;1356;-91
2022/01/29 01:38:17;;;;;;;28.85;16.00;;;;;;;9.67;54.94;102135.91;682693;28;1253;-90
2022/01/29 01:38:45;;;;;;;30.80;16.63;;;;;;;9.63;55.02;102113.09;681906;29;1795;-91
2022/01/29 01:39:09;;;;;;;29.50;16.10;;;;;;;9.59;55.15;102107.72;687466;28;1228;-92
2022/01/29 01:39:33;;;;;;;26.45;15.93;;;;;;;9.59;55.10;102110.31;684666;28;1399;-91
2022/01/29 01:39:54;;;;;;;25.80;15.55;;;;;;;9.59;54.96;102110.31;685859;28;1402;-91
2022/01/29 01:40:15;;;;;;;26.90;15.97;;;;;;;9.55;55.36;102108.38;690503;28;1298;-92
2022/01/29 01:40:38;;;;;;;28.30;16.10;;;;;;;9.54;55.03;102106.59;688068;28;1203;-91
2022/01/29 01:41:04;;;;;;;28.48;16.20;;;;;;;9.63;55.00;102105.28;689206;28;1344;-92
2022/01/29 01:41:26;;;;;;;29.98;16.33;;;;;;;9.60;55.16;102116.44;687949;28;1321;-92
2022/01/29 01:42:04;;;;;;;29.65;15.98;;;;;;;9.60;55.33;102130.34;687901;28;1259;-90
2022/01/29 01:42:24;;;;;;;31.88;15.80;;;;;;;9.57;55.07;102098.91;681654;28;1312;-91
2022/01/29 01:42:45;;;;;;;32.80;16.70;;;;;;;9.54;55.42;102090.94;682664;28;1281;-92